Terminal Aerodrome Forecast
Issued by NWS Dodge City, KS

Home | Current Version | Previous Version | Graphics & Text | Print | Product List | Glossary Off
Versions: 1 2 3 4 5 6 7 8 9 10 11 12 13 14 15 16 17 18 19 20 21 22

000
FTUS43 KDDC 221001 AAA
TAFDDC
TAF AMD
KDDC 221001Z 2210/2306 17005KT P6SM SKC
     FM221800 20015G25KT P6SM SCT250
     FM222300 17012KT P6SM FEW250
     FM230200 06008KT P6SM BKN200 WS020/17020KT=

USA.gov is the U.S. government's official web portal to all federal, state and local government web resources and services.